Time;durP1;ratioP1;P1;durP2;ratioP2;P2;SDS_P1;SDS_P2;PMS_P1;PMS_P2;Temp;Humidity;BMP_temperature;BMP_pressure;BME280_temperature;BME280_humidity;BME280_pressure;Samples;Min_cycle;Max_cycle;Signal;HPM_P1;HPM_P2
2023/04/04 00:02:02;;;;;;;6.87;3.57;;;;;;;3.64;56.01;101149.72;5062929;28;20297;-76
2023/04/04 00:04:28;;;;;;;10.93;4.43;;;;;;;3.65;56.45;101140.59;5062479;28;20269;-77
2023/04/04 00:06:53;;;;;;;7.35;3.60;;;;;;;3.61;56.28;101149.06;5063075;28;20044;-77
2023/04/04 00:09:19;;;;;;;7.50;4.20;;;;;;;3.63;56.66;101148.88;5062165;28;20446;-76
2023/04/04 00:11:45;;;;;;;9.82;4.13;;;;;;;3.58;56.06;101162.09;5063593;28;20055;-77
2023/04/04 00:14:10;;;;;;;7.72;3.95;;;;;;;3.54;56.44;101150.00;5062998;28;20036;-76
2023/04/04 00:16:35;;;;;;;10.73;4.70;;;;;;;3.55;56.53;101148.97;5063749;28;20024;-76
2023/04/04 00:19:01;;;;;;;15.98;5.70;;;;;;;3.52;56.94;101155.56;5062804;28;20043;-76
2023/04/04 00:21:26;;;;;;;18.35;6.30;;;;;;;3.49;57.23;101154.09;5062727;28;20028;-77
2023/04/04 00:23:53;;;;;;;11.80;6.75;;;;;;;3.49;57.10;101161.31;5062497;28;20115;-76
2023/04/04 00:26:20;;;;;;;11.65;5.47;;;;;;;3.48;56.88;101154.25;5062778;28;20040;-77
2023/04/04 00:28:45;;;;;;;10.85;5.32;;;;;;;3.48;57.19;101148.84;5062791;28;20051;-77
2023/04/04 00:31:10;;;;;;;8.45;4.53;;;;;;;3.44;57.74;101159.16;5061991;28;20028;-77
2023/04/04 00:33:35;;;;;;;9.27;4.20;;;;;;;3.44;57.26;101153.78;5062445;28;20125;-76
2023/04/04 00:36:01;;;;;;;11.07;4.67;;;;;;;3.46;57.57;101157.13;5061908;28;20043;-77
2023/04/04 00:38:28;;;;;;;10.38;4.10;;;;;;;3.46;57.29;101158.97;5062577;28;20268;-77
2023/04/04 00:40:56;;;;;;;9.50;4.25;;;;;;;3.41;57.08;101151.47;5062539;28;20063;-77
2023/04/04 00:43:21;;;;;;;8.88;4.75;;;;;;;3.37;57.33;101153.69;5062108;28;20119;-77
2023/04/04 00:45:48;;;;;;;7.68;4.03;;;;;;;3.32;57.55;101157.94;5061902;28;20047;-77
2023/04/04 00:48:13;;;;;;;9.77;4.57;;;;;;;3.32;57.54;101163.31;5061867;28;20031;-77
2023/04/04 00:50:38;;;;;;;8.07;5.70;;;;;;;3.34;57.33;101162.13;5062296;28;20159;-76
2023/04/04 00:53:04;;;;;;;6.53;4.05;;;;;;;3.34;57.64;101153.19;5062194;28;20024;-77
2023/04/04 00:55:30;;;;;;;10.20;4.68;;;;;;;3.30;57.50;101166.19;5060501;28;20414;-78
2023/04/04 00:57:57;;;;;;;9.88;5.00;;;;;;;3.31;57.48;101162.50;5062406;28;20057;-77
2023/04/04 01:00:23;;;;;;;8.68;4.18;;;;;;;3.29;57.50;101158.31;5060965;28;20025;-76
2023/04/04 01:02:49;;;;;;;8.65;4.47;;;;;;;3.31;57.92;101165.19;5062265;28;20032;-77
2023/04/04 01:05:14;;;;;;;10.45;4.40;;;;;;;3.27;58.36;101163.88;5061459;28;20032;-76
2023/04/04 01:07:40;;;;;;;10.80;5.10;;;;;;;3.23;58.23;101167.97;5061795;28;20040;-77
2023/04/04 01:10:06;;;;;;;10.32;4.35;;;;;;;3.18;58.46;101162.25;5043717;28;20045;-76
2023/04/04 01:12:31;;;;;;;7.28;4.63;;;;;;;3.17;57.70;101163.28;5061777;28;20043;-77
2023/04/04 01:14:56;;;;;;;10.13;4.05;;;;;;;3.12;57.92;101151.19;5061891;28;20036;-77
2023/04/04 01:17:23;;;;;;;7.97;4.20;;;;;;;3.10;57.79;101147.00;5061303;28;20049;-77
2023/04/04 01:20:10;;;;;;;12.95;4.03;;;;;;;3.08;57.67;101152.56;5061714;28;20033;-77
2023/04/04 01:22:37;;;;;;;7.82;3.90;;;;;;;3.01;58.69;101152.44;5061690;28;20065;-77
2023/04/04 01:25:04;;;;;;;9.23;4.63;;;;;;;3.02;58.40;101147.91;5061342;28;20693;-76
2023/04/04 01:27:30;;;;;;;12.82;4.45;;;;;;;3.08;58.72;101151.72;5061580;28;20032;-76
2023/04/04 01:29:55;;;;;;;11.48;5.38;;;;;;;3.07;58.90;101145.50;5044030;28;20644;-77
2023/04/04 01:32:41;;;;;;;9.18;3.75;;;;;;;3.07;58.69;101139.28;5061091;28;20029;-77
2023/04/04 01:35:20;;;;;;;6.47;4.20;;;;;;;3.09;58.57;101138.06;5061076;28;20040;-76
2023/04/04 01:38:02;;;;;;;8.95;4.07;;;;;;;3.11;58.67;101146.81;5061642;28;20036;-77
2023/04/04 01:40:36;;;;;;;8.85;4.32;;;;;;;3.10;59.14;101138.91;5061380;28;21186;-75
2023/04/04 01:43:01;;;;;;;9.40;4.32;;;;;;;3.08;58.95;101136.41;5061387;28;20371;-77
2023/04/04 01:45:28;;;;;;;8.07;4.32;;;;;;;3.08;59.19;101136.41;5060606;28;20043;-75
2023/04/04 01:47:55;;;;;;;9.35;4.43;;;;;;;3.05;58.92;101131.38;5061192;28;20085;-77
2023/04/04 01:50:20;;;;;;;9.55;5.10;;;;;;;3.02;58.74;101132.56;5060743;28;20714;-80
2023/04/04 01:52:46;;;;;;;6.82;4.18;;;;;;;3.00;58.97;101131.06;5060451;28;20150;-77
2023/04/04 01:55:11;;;;;;;11.32;4.22;;;;;;;2.98;58.87;101133.94;5060792;28;20028;-76
2023/04/04 01:57:37;;;;;;;6.40;3.40;;;;;;;3.01;58.77;101124.69;5061070;28;20120;-76
2023/04/04 02:00:04;;;;;;;6.67;3.27;;;;;;;2.98;58.91;101127.72;5061420;28;20800;-77
2023/04/04 02:02:29;;;;;;;7.57;3.65;;;;;;;2.92;59.05;101124.75;5060716;28;20261;-76
2023/04/04 02:04:54;;;;;;;5.95;3.20;;;;;;;2.93;59.23;101120.16;5060524;28;20044;-76
2023/04/04 02:07:20;;;;;;;9.07;3.73;;;;;;;2.92;59.55;101127.44;5059646;28;20054;-77
2023/04/04 02:09:45;;;;;;;8.13;4.20;;;;;;;2.86;58.85;101122.75;5060721;28;20304;-76
2023/04/04 02:12:10;;;;;;;7.50;4.18;;;;;;;2.86;58.88;101130.84;5060406;28;20036;-77
2023/04/04 02:14:36;;;;;;;9.23;4.55;;;;;;;2.90;58.28;101123.25;5060369;28;20047;-76
2023/04/04 02:17:02;;;;;;;9.85;4.65;;;;;;;2.92;58.48;101119.34;5060904;28;20108;-76
2023/04/04 02:19:27;;;;;;;9.60;5.03;;;;;;;2.96;58.99;101121.66;5060413;28;20024;-77
2023/04/04 02:21:52;;;;;;;9.05;5.97;;;;;;;2.95;58.62;101120.81;5061021;28;20037;-76
2023/04/04 02:24:18;;;;;;;12.38;7.57;;;;;;;2.99;58.53;101116.75;5059842;28;20050;-77
2023/04/04 02:26:43;;;;;;;20.65;8.65;;;;;;;3.00;58.42;101128.38;5060908;28;20039;-77
2023/04/04 02:29:08;;;;;;;16.95;7.15;;;;;;;2.92;58.82;101127.44;5059819;28;20382;-76
2023/04/04 02:31:33;;;;;;;13.63;6.88;;;;;;;2.92;58.75;101127.44;5060742;28;20028;-76
2023/04/04 02:33:59;;;;;;;11.18;6.13;;;;;;;2.82;59.12;101116.06;5059449;28;20040;-76
2023/04/04 02:36:24;;;;;;;9.05;5.00;;;;;;;2.79;59.32;101122.63;5060757;28;20078;-76
2023/04/04 02:38:50;;;;;;;12.40;5.15;;;;;;;2.72;59.17;101135.16;5060317;28;20064;-76
2023/04/04 02:41:15;;;;;;;9.88;6.05;;;;;;;2.77;58.98;101129.22;5060309;28;20028;-76
2023/04/04 02:43:40;;;;;;;12.43;5.80;;;;;;;2.71;58.89;101121.84;5060633;28;21165;-76
2023/04/04 02:46:06;;;;;;;17.52;5.63;;;;;;;2.67;58.84;101121.38;5060133;28;21216;-76
2023/04/04 02:48:31;;;;;;;11.07;6.45;;;;;;;2.72;58.67;101120.84;5060656;28;20564;-76
2023/04/04 02:50:56;;;;;;;13.57;6.50;;;;;;;2.73;59.23;101122.50;5061527;28;20037;-77
2023/04/04 02:53:21;;;;;;;10.75;6.65;;;;;;;2.64;59.95;101119.03;5061551;28;20277;-78
2023/04/04 02:55:47;;;;;;;9.80;6.75;;;;;;;2.58;60.08;101120.59;5060583;28;20055;-77
2023/04/04 02:58:12;;;;;;;15.77;7.43;;;;;;;2.59;59.99;101121.41;5060982;28;20041;-77
2023/04/04 03:00:38;;;;;;;12.60;8.05;;;;;;;2.60;59.98;101117.72;5061014;28;20059;-77
2023/04/04 03:03:04;;;;;;;14.98;7.07;;;;;;;2.56;60.04;101111.84;5059082;28;20032;-77
2023/04/04 03:05:30;;;;;;;16.20;8.27;;;;;;;2.58;59.94;101109.81;5059700;28;20036;-77
2023/04/04 03:07:56;;;;;;;22.98;6.50;;;;;;;2.60;59.46;101113.19;5060755;28;20036;-77
2023/04/04 03:10:23;;;;;;;13.50;7.20;;;;;;;2.63;59.40;101115.50;5060015;28;20053;-78
2023/04/04 03:12:48;;;;;;;9.32;5.53;;;;;;;2.64;60.16;101103.72;5060319;28;20044;-77
2023/04/04 03:15:14;;;;;;;17.92;6.85;;;;;;;2.68;59.31;101105.03;5059852;28;20039;-77
2023/04/04 03:17:39;;;;;;;10.73;6.38;;;;;;;2.67;59.56;101107.91;5062154;28;20124;-77
2023/04/04 03:20:05;;;;;;;15.95;8.35;;;;;;;2.66;58.91;101107.09;5064297;28;20033;-76
2023/04/04 03:22:31;;;;;;;13.90;7.63;;;;;;;2.68;59.48;101110.41;5063972;28;20082;-77
2023/04/04 03:24:56;;;;;;;12.60;7.07;;;;;;;2.59;59.13;101116.88;5064408;28;20064;-77
2023/04/04 03:27:21;;;;;;;11.33;6.30;;;;;;;2.61;59.29;101114.84;5063753;28;20568;-76
2023/04/04 03:29:46;;;;;;;13.40;7.72;;;;;;;2.60;59.80;101120.41;5064225;28;20351;-77
2023/04/04 03:32:12;;;;;;;11.32;7.15;;;;;;;2.51;59.79;101122.31;5063303;28;20028;-76
2023/04/04 03:34:37;;;;;;;14.30;7.90;;;;;;;2.44;59.60;101106.88;5063720;28;20115;-76
2023/04/04 03:37:03;;;;;;;14.38;7.50;;;;;;;2.38;60.29;101099.50;5064224;28;20677;-76
2023/04/04 03:39:29;;;;;;;28.65;6.97;;;;;;;2.34;60.22;101103.56;5063626;28;20028;-77
2023/04/04 03:41:56;;;;;;;14.70;7.55;;;;;;;2.32;60.21;101097.50;5064068;28;20402;-76
2023/04/04 03:44:21;;;;;;;10.15;7.10;;;;;;;2.33;60.44;101099.19;5063459;28;20089;-76
2023/04/04 03:46:46;;;;;;;15.18;7.57;;;;;;;2.30;60.25;101088.78;5064119;28;20437;-76
2023/04/04 03:49:12;;;;;;;12.27;7.60;;;;;;;2.26;60.49;101090.16;5063289;28;20035;-76
2023/04/04 03:51:37;;;;;;;14.50;6.85;;;;;;;2.24;60.72;101092.19;5063795;28;20370;-77
2023/04/04 03:54:02;;;;;;;18.08;6.30;;;;;;;2.20;60.81;101081.75;5063049;28;20040;-77
2023/04/04 03:56:30;;;;;;;11.15;5.70;;;;;;;2.16;60.88;101088.50;5063339;28;20537;-77
2023/04/04 03:58:55;;;;;;;11.65;6.20;;;;;;;2.16;60.64;101088.50;5063708;28;20032;-77
2023/04/04 04:01:20;;;;;;;13.07;7.07;;;;;;;2.12;60.26;101089.88;5063613;28;20036;-76
2023/04/04 04:03:46;;;;;;;13.20;7.07;;;;;;;2.08;61.23;101088.56;5063162;28;20028;-76
2023/04/04 04:06:11;;;;;;;12.32;6.70;;;;;;;2.07;60.85;101090.44;5062908;28;20029;-75
2023/04/04 04:08:37;;;;;;;14.25;5.85;;;;;;;2.09;60.63;101095.63;5063607;28;20056;-76
2023/04/04 04:11:04;;;;;;;12.50;5.90;;;;;;;2.06;60.71;101085.19;5063159;28;20044;-76
2023/04/04 04:13:29;;;;;;;9.50;5.15;;;;;;;2.07;60.93;101086.88;5063264;28;20036;-77
2023/04/04 04:15:55;;;;;;;10.87;5.97;;;;;;;2.05;60.91;101088.91;5063004;28;20612;-76
2023/04/04 04:18:20;;;;;;;11.30;5.50;;;;;;;2.08;60.94;101088.56;5062832;28;20249;-76
2023/04/04 04:20:46;;;;;;;10.20;5.28;;;;;;;2.14;60.73;101087.84;5045676;28;21622;-77
2023/04/04 04:23:11;;;;;;;11.88;5.85;;;;;;;2.07;60.52;101076.97;5062882;28;20036;-77
2023/04/04 04:25:36;;;;;;;15.75;7.35;;;;;;;2.05;61.21;101083.53;5062880;28;20146;-76
2023/04/04 04:28:02;;;;;;;13.37;6.43;;;;;;;2.04;61.48;101085.38;5063000;28;21006;-76
2023/04/04 04:30:27;;;;;;;12.30;7.28;;;;;;;2.01;61.88;101090.28;5062379;28;20268;-77
2023/04/04 04:32:52;;;;;;;12.10;6.33;;;;;;;2.03;61.57;101089.09;5062894;28;20028;-77
2023/04/04 04:35:17;;;;;;;9.60;5.75;;;;;;;2.04;62.22;101084.53;5062208;28;20293;-77
2023/04/04 04:37:43;;;;;;;12.65;6.45;;;;;;;2.02;62.18;101081.19;5063205;28;20029;-77
2023/04/04 04:40:09;;;;;;;10.20;5.87;;;;;;;1.98;61.60;101089.63;5062863;28;20039;-76
2023/04/04 04:42:34;;;;;;;10.93;5.97;;;;;;;1.93;61.51;101081.22;5062666;28;20257;-76
2023/04/04 04:45:00;;;;;;;16.33;6.97;;;;;;;1.90;62.18;101076.19;5063024;28;20078;-76
2023/04/04 04:47:25;;;;;;;16.80;7.15;;;;;;;1.83;61.68;101080.59;5062655;28;20028;-75
2023/04/04 04:49:50;;;;;;;11.23;6.45;;;;;;;1.81;62.60;101066.50;5063183;28;20114;-76
2023/04/04 04:52:16;;;;;;;12.55;6.55;;;;;;;1.85;62.26;101090.16;5062497;28;20555;-76
2023/04/04 04:54:42;;;;;;;14.43;7.55;;;;;;;1.88;61.90;101072.00;5062083;28;20532;-76
2023/04/04 04:57:07;;;;;;;15.93;8.57;;;;;;;1.88;61.75;101080.91;5062059;28;20505;-76
2023/04/04 04:59:33;;;;;;;10.48;6.70;;;;;;;1.87;61.72;101071.19;5062995;28;20056;-76
2023/04/04 05:01:58;;;;;;;11.57;8.25;;;;;;;1.87;61.92;101081.94;5062134;28;20093;-77
2023/04/04 05:04:23;;;;;;;18.10;8.27;;;;;;;1.88;61.96;101080.06;5061198;28;20044;-77
2023/04/04 05:06:49;;;;;;;14.02;8.25;;;;;;;1.92;61.96;101084.09;5062348;28;20025;-77
2023/04/04 05:09:14;;;;;;;17.52;10.48;;;;;;;1.92;62.03;101078.69;5061602;28;20076;-76
2023/04/04 05:11:40;;;;;;;15.33;8.37;;;;;;;1.89;61.66;101079.91;5062684;28;20036;-77
2023/04/04 05:14:05;;;;;;;25.65;8.88;;;;;;;1.86;61.78;101082.94;5061554;28;20269;-76
2023/04/04 05:16:30;;;;;;;15.88;9.70;;;;;;;1.89;62.19;101089.81;5062457;28;20024;-76
2023/04/04 05:18:56;;;;;;;15.80;7.78;;;;;;;1.82;62.35;101089.66;5061900;28;20585;-77
2023/04/04 05:21:22;;;;;;;12.17;8.10;;;;;;;1.85;61.85;101089.34;5062031;28;20481;-77
2023/04/04 05:23:47;;;;;;;12.90;8.43;;;;;;;1.88;62.24;101083.59;5061883;28;20265;-76
2023/04/04 05:26:13;;;;;;;16.48;9.25;;;;;;;1.88;62.08;101083.59;5061601;28;20046;-77
2023/04/04 05:28:39;;;;;;;14.63;7.68;;;;;;;1.90;62.42;101088.78;5061800;28;20040;-76
2023/04/04 05:31:04;;;;;;;17.15;8.57;;;;;;;1.90;62.23;101086.09;5061377;28;20517;-76
2023/04/04 05:33:30;;;;;;;13.17;7.50;;;;;;;1.94;61.92;101090.97;5061468;28;20043;-75
2023/04/04 05:35:55;;;;;;;17.13;9.15;;;;;;;1.97;62.21;101087.09;5060929;28;21462;-76
2023/04/04 05:38:20;;;;;;;10.87;7.67;;;;;;;1.98;62.07;101095.00;5061313;28;20035;-76
2023/04/04 05:40:46;;;;;;;13.68;9.05;;;;;;;2.02;62.46;101097.31;5061351;28;20258;-76
2023/04/04 05:43:12;;;;;;;11.43;8.70;;;;;;;2.02;62.23;101110.78;5059874;28;20667;-76
2023/04/04 05:45:37;;;;;;;14.23;8.70;;;;;;;2.07;62.36;101108.41;5042818;28;20219;-76
2023/04/04 05:48:03;;;;;;;17.55;9.32;;;;;;;2.12;62.34;101107.88;5060775;28;20082;-76
2023/04/04 05:50:28;;;;;;;15.73;10.38;;;;;;;2.16;61.92;101111.88;5061616;28;20029;-76
2023/04/04 05:52:54;;;;;;;15.88;8.48;;;;;;;2.16;61.83;101107.34;5043531;28;20644;-77
2023/04/04 05:55:20;;;;;;;14.85;7.85;;;;;;;2.14;62.31;101101.31;5060615;28;20066;-76
2023/04/04 05:57:49;;;;;;;14.30;10.10;;;;;;;2.14;62.98;101114.75;5061251;28;20551;-77
2023/04/04 06:00:16;;;;;;;35.60;10.77;;;;;;;2.16;63.02;101112.72;5061477;28;20051;-76
2023/04/04 06:02:41;;;;;;;17.35;9.95;;;;;;;2.25;62.83;101116.22;5061302;28;20039;-77
2023/04/04 06:05:07;;;;;;;14.82;8.65;;;;;;;2.32;62.55;101119.03;5060395;28;20492;-76
2023/04/04 06:07:33;;;;;;;15.90;9.32;;;;;;;2.35;62.34;101118.72;5060825;28;20470;-76
2023/04/04 06:09:58;;;;;;;15.40;9.52;;;;;;;2.35;62.81;101118.72;5059619;28;20048;-76
2023/04/04 06:12:23;;;;;;;15.30;9.48;;;;;;;2.40;62.89;101120.88;5061091;28;20035;-77
2023/04/04 06:14:49;;;;;;;17.00;8.52;;;;;;;2.39;62.92;101121.88;5060853;28;20587;-77
2023/04/04 06:17:14;;;;;;;14.87;9.17;;;;;;;2.42;63.17;101126.91;5060704;28;20055;-76
2023/04/04 06:19:39;;;;;;;15.55;9.02;;;;;;;2.50;63.27;101134.94;5061703;28;21103;-77
2023/04/04 06:22:05;;;;;;;15.05;9.07;;;;;;;2.56;62.78;101133.41;5061392;28;20084;-76
2023/04/04 06:24:30;;;;;;;12.70;8.73;;;;;;;2.59;63.09;101132.19;5060132;28;20498;-77
2023/04/04 06:26:55;;;;;;;15.43;8.03;;;;;;;2.63;62.88;101145.13;5061096;28;20048;-77
2023/04/04 06:29:21;;;;;;;15.25;8.73;;;;;;;2.70;62.90;101144.41;5060880;28;20265;-77
2023/04/04 06:31:48;;;;;;;14.13;7.30;;;;;;;2.71;62.55;101155.00;5061175;28;20035;-77
2023/04/04 06:34:13;;;;;;;15.27;7.65;;;;;;;2.71;62.35;101155.00;5060318;28;20101;-77
2023/04/04 06:36:39;;;;;;;12.27;7.85;;;;;;;2.69;63.00;101157.03;5060948;28;20044;-76
2023/04/04 06:39:04;;;;;;;11.30;6.82;;;;;;;2.79;62.03;101167.59;5060909;28;20542;-76
2023/04/04 06:41:29;;;;;;;15.77;9.27;;;;;;;2.76;62.72;101160.72;5059059;28;20032;-76
2023/04/04 06:43:54;;;;;;;15.05;8.38;;;;;;;2.73;63.06;101163.75;5060826;28;20376;-76
2023/04/04 06:46:19;;;;;;;15.13;8.53;;;;;;;2.81;63.25;101168.25;5060903;28;20028;-77
2023/04/04 06:48:45;;;;;;;13.57;8.05;;;;;;;2.84;63.60;101162.50;5060922;28;21035;-76
2023/04/04 06:51:11;;;;;;;12.30;7.77;;;;;;;2.86;62.91;101160.47;5060633;28;20036;-76
2023/04/04 06:53:37;;;;;;;18.73;7.72;;;;;;;2.98;62.94;101158.22;5064228;28;20275;-76
2023/04/04 06:56:03;;;;;;;15.23;9.18;;;;;;;3.01;62.36;101163.22;5064405;28;20165;-76
2023/04/04 06:58:28;;;;;;;13.30;8.18;;;;;;;3.06;62.73;101159.16;5064885;28;20515;-76
2023/04/04 07:00:55;;;;;;;17.70;9.43;;;;;;;3.10;62.25;101161.31;5064974;28;20032;-76
2023/04/04 07:03:22;;;;;;;14.10;8.48;;;;;;;3.10;62.12;101171.25;5064483;28;20036;-76
2023/04/04 07:05:47;;;;;;;12.77;7.93;;;;;;;3.15;61.93;101161.59;5064063;28;20056;-76
2023/04/04 07:08:13;;;;;;;16.97;7.30;;;;;;;3.21;61.76;101161.91;5063021;28;20131;-77
2023/04/04 07:10:38;;;;;;;15.70;8.15;;;;;;;3.29;61.85;101159.16;5064075;28;20836;-78
2023/04/04 07:13:03;;;;;;;11.63;7.35;;;;;;;3.35;61.48;101155.72;5064839;28;20147;-76
2023/04/04 07:15:28;;;;;;;13.57;8.20;;;;;;;3.36;61.14;101160.09;5063737;28;21190;-77
2023/04/04 07:17:54;;;;;;;13.00;6.50;;;;;;;3.32;61.17;101157.94;5064866;28;20285;-77
2023/04/04 07:20:19;;;;;;;19.77;9.07;;;;;;;3.26;61.57;101159.50;5064376;28;20245;-78
2023/04/04 07:22:45;;;;;;;13.77;7.50;;;;;;;3.32;62.05;101158.78;5064806;28;20619;-72
2023/04/04 07:25:12;;;;;;;18.30;10.13;;;;;;;3.43;61.11;101160.19;5063844;28;20277;-78
2023/04/04 07:27:37;;;;;;;16.08;9.52;;;;;;;3.60;60.90;101146.56;5064430;28;20071;-76
2023/04/04 07:30:03;;;;;;;21.77;11.50;;;;;;;3.64;60.92;101160.50;5064738;28;20448;-78
2023/04/04 07:32:29;;;;;;;18.92;9.93;;;;;;;3.66;60.50;101153.09;5063608;28;20109;-77
2023/04/04 07:34:54;;;;;;;17.85;10.43;;;;;;;3.61;61.19;101162.56;5046296;28;20032;-76
2023/04/04 07:37:20;;;;;;;19.70;9.68;;;;;;;3.65;60.82;101163.03;5063278;28;20510;-77
2023/04/04 07:39:46;;;;;;;16.80;8.90;;;;;;;3.80;60.31;101159.50;5064338;28;20060;-81
2023/04/04 07:42:11;;;;;;;14.35;8.25;;;;;;;3.89;59.72;101168.34;5063501;28;20124;-79
2023/04/04 07:44:37;;;;;;;14.17;8.30;;;;;;;4.01;59.22;101160.63;5062439;28;20041;-78
2023/04/04 07:47:02;;;;;;;12.52;8.18;;;;;;;4.08;59.42;101161.56;5063819;28;20269;-79
2023/04/04 07:49:27;;;;;;;14.97;6.40;;;;;;;4.06;58.67;101152.81;5045193;28;20097;-79
2023/04/04 07:51:54;;;;;;;15.25;7.35;;;;;;;4.19;58.73;101161.06;5064565;28;20265;-79
2023/04/04 07:54:23;;;;;;;12.45;6.13;;;;;;;4.25;58.06;101154.06;5062795;28;20047;-77
2023/04/04 07:56:48;;;;;;;12.23;6.72;;;;;;;4.27;57.41;101148.50;5063367;28;20048;-78
2023/04/04 07:59:13;;;;;;;13.20;6.53;;;;;;;4.20;56.44;101153.81;5063260;28;20020;-80
2023/04/04 08:01:39;;;;;;;9.13;4.78;;;;;;;4.30;57.22;101158.91;5063632;28;20025;-78
2023/04/04 08:04:04;;;;;;;18.30;5.37;;;;;;;4.38;56.87;101149.88;5044621;28;20417;-79
2023/04/04 08:06:29;;;;;;;25.30;6.78;;;;;;;4.46;56.97;101154.31;5063384;28;20253;-78
2023/04/04 08:08:55;;;;;;;14.40;5.67;;;;;;;4.51;56.80;101157.31;5062255;28;20264;-81
2023/04/04 08:11:20;;;;;;;10.55;4.63;;;;;;;4.47;55.88;101148.75;5063830;28;20331;-80
2023/04/04 08:13:45;;;;;;;9.83;5.17;;;;;;;4.55;55.58;101150.50;5063900;28;20394;-78
2023/04/04 08:16:11;;;;;;;12.27;6.10;;;;;;;4.81;55.19;101149.13;5063540;28;20272;-77
2023/04/04 08:18:36;;;;;;;9.70;5.28;;;;;;;4.88;55.10;101143.78;5063862;28;20036;-81
2023/04/04 08:21:01;;;;;;;11.27;4.70;;;;;;;5.01;54.93;101140.34;5063551;28;20040;-82
2023/04/04 08:23:28;;;;;;;11.90;4.77;;;;;;;5.16;53.94;101140.28;5064364;28;20268;-82
2023/04/04 08:25:54;;;;;;;14.73;3.58;;;;;;;5.20;53.49;101133.47;5063333;28;20268;-78
2023/04/04 08:28:19;;;;;;;8.10;4.13;;;;;;;5.23;53.08;101132.22;5063847;28;20032;-80
2023/04/04 08:30:44;;;;;;;8.77;4.40;;;;;;;5.08;52.32;101140.44;5063780;28;20044;-82
2023/04/04 08:33:09;;;;;;;8.23;4.17;;;;;;;5.16;53.94;101140.28;5063444;28;20281;-80
2023/04/04 08:35:35;;;;;;;7.25;3.35;;;;;;;5.29;52.96;101134.16;5062882;28;20356;-80
2023/04/04 08:38:04;;;;;;;8.60;3.35;;;;;;;5.23;51.49;101134.91;5063802;28;20567;-79
2023/04/04 08:40:31;;;;;;;7.65;2.42;;;;;;;5.36;52.41;101139.63;5045479;28;20083;-82
2023/04/04 08:42:58;;;;;;;9.00;3.33;;;;;;;5.45;52.12;101133.03;5064077;28;20510;-82
2023/04/04 08:45:26;;;;;;;8.10;2.78;;;;;;;5.64;51.30;101130.66;5064241;28;20044;-84
2023/04/04 08:47:53;;;;;;;6.43;3.10;;;;;;;5.68;50.59;101131.94;5045780;28;20517;-83
2023/04/04 08:50:20;;;;;;;6.55;2.88;;;;;;;5.33;49.08;101131.91;5064044;28;20469;-81
2023/04/04 08:52:46;;;;;;;4.68;2.00;;;;;;;5.48;51.17;101127.22;5063393;28;20037;-81
2023/04/04 08:55:11;;;;;;;9.50;3.00;;;;;;;5.66;51.33;101136.72;5062955;28;20485;-79
2023/04/04 08:57:37;;;;;;;5.70;2.38;;;;;;;5.77;50.26;101131.78;5063426;28;20059;-80
2023/04/04 09:00:05;;;;;;;13.75;3.40;;;;;;;5.84;49.72;101143.47;5063636;28;20059;-82
2023/04/04 09:02:48;;;;;;;11.75;2.70;;;;;;;5.79;49.66;101138.69;5044239;28;20055;-82
2023/04/04 09:05:14;;;;;;;8.88;3.88;;;;;;;5.94;49.71;101143.94;5063352;28;20039;-81
2023/04/04 09:07:41;;;;;;;10.70;3.95;;;;;;;5.90;48.66;101145.38;5062574;28;20032;-78
2023/04/04 09:10:12;;;;;;;17.15;3.08;;;;;;;5.93;49.42;101133.31;5062704;28;20053;-80
2023/04/04 09:12:46;;;;;;;6.72;2.67;;;;;;;6.04;48.87;101140.88;5062850;28;20051;-80
2023/04/04 09:15:12;;;;;;;5.90;2.38;;;;;;;5.85;49.42;101137.03;5061566;28;20085;-80
2023/04/04 09:17:37;;;;;;;5.63;2.10;;;;;;;5.90;48.54;101133.75;5044977;28;20040;-80
2023/04/04 09:20:46;;;;;;;7.68;2.85;;;;;;;5.75;46.32;101131.13;5062634;28;20031;-79
2023/04/04 09:23:13;;;;;;;7.68;2.95;;;;;;;6.10;48.08;101136.59;5054371;28;20066;-83
2023/04/04 09:25:47;;;;;;;6.03;2.50;;;;;;;6.33;48.27;101132.69;5062101;28;20500;-83
2023/04/04 09:28:14;;;;;;;8.60;1.70;;;;;;;6.55;47.74;101129.84;5062561;28;20032;-84
2023/04/04 09:30:40;;;;;;;6.50;2.50;;;;;;;6.56;46.58;101117.97;5063054;28;20432;-82
2023/04/04 09:33:07;;;;;;;4.43;1.50;;;;;;;6.68;47.26;101122.78;5063046;28;20029;-82
2023/04/04 09:35:37;;;;;;;7.93;2.97;;;;;;;6.59;46.89;101125.69;5061848;28;20044;-82
2023/04/04 09:38:04;;;;;;;4.90;2.13;;;;;;;6.61;46.57;101118.19;5062684;28;20029;-83
2023/04/04 09:40:30;;;;;;;7.07;2.58;;;;;;;6.74;46.82;101116.56;5062660;28;20397;-81
2023/04/04 09:42:59;;;;;;;6.25;1.80;;;;;;;6.92;46.65;101120.53;5062670;28;20043;-82
2023/04/04 09:45:25;;;;;;;3.45;1.33;;;;;;;6.67;46.07;101121.97;5062440;28;20036;-82
2023/04/04 09:47:50;;;;;;;6.90;1.70;;;;;;;6.83;46.14;101114.50;5062062;28;20052;-82
2023/04/04 09:50:24;;;;;;;24.40;3.22;;;;;;;6.83;44.59;101115.34;5061937;28;20094;-82
2023/04/04 09:52:50;;;;;;;4.25;1.83;;;;;;;6.93;44.98;101111.38;5044436;28;20033;-82
2023/04/04 09:55:16;;;;;;;5.82;3.08;;;;;;;7.07;44.76;101110.34;5061827;28;20490;-82
2023/04/04 09:57:42;;;;;;;5.55;1.83;;;;;;;6.95;44.04;101110.13;5062621;28;20040;-82
2023/04/04 10:00:08;;;;;;;7.13;2.25;;;;;;;7.32;45.70;101108.88;5062321;28;20029;-79
2023/04/04 10:02:36;;;;;;;5.35;2.22;;;;;;;7.42;45.24;101103.03;5060865;28;20052;-79
2023/04/04 10:05:02;;;;;;;5.25;2.83;;;;;;;7.56;44.26;101104.69;5059799;28;20119;-79
2023/04/04 10:07:29;;;;;;;5.20;2.20;;;;;;;7.72;45.09;101102.53;5059464;28;20063;-80
2023/04/04 10:09:55;;;;;;;3.92;1.60;;;;;;;7.77;44.22;101099.22;5060260;28;20048;-79
2023/04/04 10:12:24;;;;;;;5.57;1.85;;;;;;;7.88;44.10;101097.69;5060077;28;20748;-80
2023/04/04 10:15:00;;;;;;;7.50;2.13;;;;;;;7.91;42.75;101103.53;5060144;28;20029;-80
2023/04/04 10:17:52;;;;;;;6.57;2.53;;;;;;;8.04;42.38;101086.34;5060308;28;20286;-80
2023/04/04 10:20:18;;;;;;;3.70;1.25;;;;;;;7.98;42.34;101094.53;5041004;28;21065;-79
2023/04/04 10:22:45;;;;;;;3.30;1.50;;;;;;;7.91;42.96;101086.41;5061886;28;20077;-79
2023/04/04 10:25:10;;;;;;;4.25;1.58;;;;;;;8.27;43.07;101079.56;5061040;28;20095;-80
2023/04/04 10:27:37;;;;;;;5.45;2.58;;;;;;;8.40;42.71;101077.84;5060882;28;20327;-79
2023/04/04 10:30:03;;;;;;;8.07;2.38;;;;;;;8.28;41.75;101075.78;5061588;28;20086;-79
2023/04/04 10:32:52;;;;;;;7.50;2.42;;;;;;;8.45;43.10;101079.88;5061232;28;20552;-79
2023/04/04 10:35:21;;;;;;;6.25;2.35;;;;;;;8.43;42.94;101071.97;5061449;28;20032;-80
2023/04/04 10:37:56;;;;;;;6.97;2.55;;;;;;;8.56;42.16;101081.09;5061486;28;20497;-79
2023/04/04 10:40:23;;;;;;;10.20;3.45;;;;;;;8.69;42.15;101075.59;5043589;28;20058;-80
2023/04/04 10:42:49;;;;;;;6.00;2.22;;;;;;;8.96;42.00;101080.84;5061502;28;20024;-81
2023/04/04 10:45:16;;;;;;;34.63;2.22;;;;;;;9.04;41.77;101059.84;5060946;28;20042;-79
2023/04/04 10:47:42;;;;;;;4.18;2.03;;;;;;;8.90;40.13;101057.25;5061029;28;20029;-80
2023/04/04 10:50:10;;;;;;;3.33;1.55;;;;;;;9.03;40.60;101052.75;5043377;28;20043;-81
2023/04/04 10:52:38;;;;;;;4.35;1.48;;;;;;;9.15;40.72;101061.00;5061441;28;20037;-80
2023/04/04 10:55:05;;;;;;;5.15;2.13;;;;;;;8.96;39.99;101047.34;5060763;28;20496;-80
2023/04/04 10:57:33;;;;;;;4.20;1.90;;;;;;;9.21;41.52;101054.66;5061165;28;20664;-80
2023/04/04 11:00:18;;;;;;;3.85;1.70;;;;;;;9.25;40.54;101055.88;5061667;28;20105;-80
2023/04/04 11:02:55;;;;;;;5.68;2.90;;;;;;;9.55;40.09;101054.31;5060514;28;20029;-80
2023/04/04 11:05:24;;;;;;;4.78;1.63;;;;;;;9.77;40.92;101042.97;5060509;28;20040;-80
2023/04/04 11:08:04;;;;;;;5.13;2.00;;;;;;;9.70;39.80;101045.78;5060851;28;20056;-80
2023/04/04 11:10:32;;;;;;;5.68;1.88;;;;;;;9.77;40.02;101034.81;5060428;28;20552;-80
2023/04/04 11:13:06;;;;;;;3.30;1.33;;;;;;;9.79;39.17;101038.13;5061224;28;20389;-80
2023/04/04 11:16:03;;;;;;;5.25;1.58;;;;;;;9.69;38.27;101039.50;5060579;28;20474;-80
2023/04/04 11:18:38;;;;;;;5.40;1.75;;;;;;;9.68;38.71;101037.03;5060036;28;20158;-80
2023/04/04 11:21:09;;;;;;;3.72;1.30;;;;;;;9.81;38.04;101027.84;5060989;28;20037;-80
2023/04/04 11:23:57;;;;;;;6.10;2.20;;;;;;;9.89;37.23;101032.97;5061009;28;20120;-80
2023/04/04 11:26:26;;;;;;;5.70;2.45;;;;;;;9.88;37.46;101030.50;5060282;28;20118;-80
2023/04/04 11:28:55;;;;;;;4.43;1.63;;;;;;;10.00;37.33;101027.81;5061088;28;20043;-80